<?xml version="1.0" encoding="UTF-8" standalone="no" ?>
<gpx xmlns="http://www.topografix.com/GPX/1/1" xmlns:xsi="http://www.w3.org/2001/XMLSchema-instance" xsi:schemaLocation="http://www.topografix.com/GPX/1/1 http://www.topografix.com/GPX/1/1/gpx.xsd" version="1.1" creator="VisuGPX - https://www.visugpx.com">
  <metadata>
    <name>Valmasque - RRaTT 27/05/11</name>
    <desc><![CDATA[Balade sur les sentiers de Ross Perot, chute, levier de frein HS, bon, on rentre...]]></desc>
  </metadata>
  <trk>
    <name><![CDATA[Valmasque - RRaTT chez Ross Pérot]]></name>
    <desc><![CDATA[Balalde sur les sentiers de Ross Perot avec Stéphane]]></desc>
    <trkseg>
      <trkpt lat="43.62848" lon="7.03613">
        <ele>201</ele>
        <time>2011-05-27T10:30:25.000Z</time>
      </trkpt>
      <trkpt lat="43.62848" lon="7.03614">
        <ele>201</ele>
        <time>2011-05-27T10:30:27.000Z</time>
      </trkpt>
      <trkpt lat="43.62843" lon="7.03613">
        <ele>201</ele>
        <time>2011-05-27T10:30:30.000Z</time>
      </trkpt>
      <trkpt lat="43.62834" lon="7.03606">
        <ele>201</ele>
        <time>2011-05-27T10:30:34.000Z</time>
      </trkpt>
      <trkpt lat="43.62829" lon="7.03588">
        <ele>201.80000305176</ele>
        <time>2011-05-27T10:30:39.000Z</time>
      </trkpt>
      <trkpt lat="43.6283" lon="7.03584">
        <ele>202</ele>
        <time>2011-05-27T10:30:40.000Z</time>
      </trkpt>
      <trkpt lat="43.62839" lon="7.03555">
        <ele>202.39999389648</ele>
        <time>2011-05-27T10:30:46.000Z</time>
      </trkpt>
      <trkpt lat="43.62846" lon="7.03527">
        <ele>202.60000610352</ele>
        <time>2011-05-27T10:30:51.000Z</time>
      </trkpt>
      <trkpt lat="43.62864" lon="7.03493">
        <ele>201.80000305176</ele>
        <time>2011-05-27T10:30:58.000Z</time>
      </trkpt>
      <trkpt lat="43.62885" lon="7.03455">
        <ele>200.19999694824</ele>
        <time>2011-05-27T10:31:06.000Z</time>
      </trkpt>
      <trkpt lat="43.62903" lon="7.03428">
        <ele>198.39999389648</ele>
        <time>2011-05-27T10:31:11.000Z</time>
      </trkpt>
      <trkpt lat="43.62909" lon="7.03415">
        <ele>197.60000610352</ele>
        <time>2011-05-27T10:31:13.000Z</time>
      </trkpt>
      <trkpt lat="43.6291" lon="7.03398">
        <ele>196.80000305176</ele>
        <time>2011-05-27T10:31:17.000Z</time>
      </trkpt>
      <trkpt lat="43.62906" lon="7.03391">
        <ele>197</ele>
        <time>2011-05-27T10:31:23.000Z</time>
      </trkpt>
      <trkpt lat="43.62905" lon="7.0339">
        <ele>197.19999694824</ele>
        <time>2011-05-27T10:31:24.000Z</time>
      </trkpt>
      <trkpt lat="43.62905" lon="7.03393">
        <ele>197.19999694824</ele>
        <time>2011-05-27T10:31:38.000Z</time>
      </trkpt>
      <trkpt lat="43.62904" lon="7.0339">
        <ele>197.19999694824</ele>
        <time>2011-05-27T10:31:46.000Z</time>
      </trkpt>
      <trkpt lat="43.629" lon="7.03372">
        <ele>197.19999694824</ele>
        <time>2011-05-27T10:31:51.000Z</time>
      </trkpt>
      <trkpt lat="43.62899" lon="7.03354">
        <ele>196.80000305176</ele>
        <time>2011-05-27T10:31:54.000Z</time>
      </trkpt>
      <trkpt lat="43.62898" lon="7.03323">
        <ele>195.39999389648</ele>
        <time>2011-05-27T10:31:59.000Z</time>
      </trkpt>
      <trkpt lat="43.62897" lon="7.03294">
        <ele>192.80000305176</ele>
        <time>2011-05-27T10:32:04.000Z</time>
      </trkpt>
      <trkpt lat="43.62889" lon="7.03284">
        <ele>193.60000610352</ele>
        <time>2011-05-27T10:32:08.000Z</time>
      </trkpt>
      <trkpt lat="43.62887" lon="7.03281">
        <ele>193.80000305176</ele>
        <time>2011-05-27T10:32:09.000Z</time>
      </trkpt>
      <trkpt lat="43.62883" lon="7.03276">
        <ele>194.60000610352</ele>
        <time>2011-05-27T10:32:11.000Z</time>
      </trkpt>
      <trkpt lat="43.62875" lon="7.03262">
        <ele>195.39999389648</ele>
        <time>2011-05-27T10:32:16.000Z</time>
      </trkpt>
      <trkpt lat="43.62869" lon="7.03253">
        <ele>196</ele>
        <time>2011-05-27T10:32:19.000Z</time>
      </trkpt>
      <trkpt lat="43.62857" lon="7.03238">
        <ele>198.80000305176</ele>
        <time>2011-05-27T10:32:24.000Z</time>
      </trkpt>
      <trkpt lat="43.62854" lon="7.03234">
        <ele>199.80000305176</ele>
        <time>2011-05-27T10:32:26.000Z</time>
      </trkpt>
      <trkpt lat="43.62855" lon="7.03213">
        <ele>199.39999389648</ele>
        <time>2011-05-27T10:32:32.000Z</time>
      </trkpt>
      <trkpt lat="43.6286" lon="7.03196">
        <ele>197.60000610352</ele>
        <time>2011-05-27T10:32:37.000Z</time>
      </trkpt>
      <trkpt lat="43.62864" lon="7.03183">
        <ele>196</ele>
        <time>2011-05-27T10:32:41.000Z</time>
      </trkpt>
      <trkpt lat="43.62868" lon="7.0317">
        <ele>194.60000610352</ele>
        <time>2011-05-27T10:32:44.000Z</time>
      </trkpt>
      <trkpt lat="43.62878" lon="7.03158">
        <ele>190.80000305176</ele>
        <time>2011-05-27T10:32:50.000Z</time>
      </trkpt>
      <trkpt lat="43.62879" lon="7.03145">
        <ele>190</ele>
        <time>2011-05-27T10:32:54.000Z</time>
      </trkpt>
      <trkpt lat="43.62885" lon="7.03122">
        <ele>187.60000610352</ele>
        <time>2011-05-27T10:32:59.000Z</time>
      </trkpt>
      <trkpt lat="43.62886" lon="7.03087">
        <ele>186.60000610352</ele>
        <time>2011-05-27T10:33:05.000Z</time>
      </trkpt>
      <trkpt lat="43.62886" lon="7.0308">
        <ele>186.39999389648</ele>
        <time>2011-05-27T10:33:06.000Z</time>
      </trkpt>
      <trkpt lat="43.6288" lon="7.03053">
        <ele>188.39999389648</ele>
        <time>2011-05-27T10:33:12.000Z</time>
      </trkpt>
      <trkpt lat="43.62882" lon="7.0304">
        <ele>187</ele>
        <time>2011-05-27T10:33:15.000Z</time>
      </trkpt>
      <trkpt lat="43.62885" lon="7.03029">
        <ele>185.39999389648</ele>
        <time>2011-05-27T10:33:19.000Z</time>
      </trkpt>
      <trkpt lat="43.62889" lon="7.03021">
        <ele>183.60000610352</ele>
        <time>2011-05-27T10:33:23.000Z</time>
      </trkpt>
      <trkpt lat="43.62894" lon="7.03005">
        <ele>181.19999694824</ele>
        <time>2011-05-27T10:33:30.000Z</time>
      </trkpt>
      <trkpt lat="43.62895" lon="7.02996">
        <ele>180.80000305176</ele>
        <time>2011-05-27T10:33:43.000Z</time>
      </trkpt>
      <trkpt lat="43.62895" lon="7.02991">
        <ele>180.19999694824</ele>
        <time>2011-05-27T10:33:45.000Z</time>
      </trkpt>
      <trkpt lat="43.62898" lon="7.02967">
        <ele>178.39999389648</ele>
        <time>2011-05-27T10:33:50.000Z</time>
      </trkpt>
      <trkpt lat="43.62898" lon="7.02965">
        <ele>178.39999389648</ele>
        <time>2011-05-27T10:33:51.000Z</time>
      </trkpt>
      <trkpt lat="43.62901" lon="7.02942">
        <ele>177</ele>
        <time>2011-05-27T10:33:56.000Z</time>
      </trkpt>
      <trkpt lat="43.62903" lon="7.02924">
        <ele>175.80000305176</ele>
        <time>2011-05-27T10:34:00.000Z</time>
      </trkpt>
      <trkpt lat="43.62902" lon="7.02903">
        <ele>175.19999694824</ele>
        <time>2011-05-27T10:34:04.000Z</time>
      </trkpt>
      <trkpt lat="43.62897" lon="7.02877">
        <ele>174.80000305176</ele>
        <time>2011-05-27T10:34:10.000Z</time>
      </trkpt>
      <trkpt lat="43.62897" lon="7.0286">
        <ele>173.80000305176</ele>
        <time>2011-05-27T10:34:15.000Z</time>
      </trkpt>
      <trkpt lat="43.62897" lon="7.02832">
        <ele>172.19999694824</ele>
        <time>2011-05-27T10:34:22.000Z</time>
      </trkpt>
      <trkpt lat="43.62894" lon="7.02815">
        <ele>172.19999694824</ele>
        <time>2011-05-27T10:34:26.000Z</time>
      </trkpt>
      <trkpt lat="43.62892" lon="7.02812">
        <ele>172.60000610352</ele>
        <time>2011-05-27T10:34:29.000Z</time>
      </trkpt>
      <trkpt lat="43.62889" lon="7.02807">
        <ele>172.80000305176</ele>
        <time>2011-05-27T10:34:43.000Z</time>
      </trkpt>
      <trkpt lat="43.62888" lon="7.02804">
        <ele>172.80000305176</ele>
        <time>2011-05-27T10:34:44.000Z</time>
      </trkpt>
      <trkpt lat="43.62893" lon="7.02796">
        <ele>171.80000305176</ele>
        <time>2011-05-27T10:34:49.000Z</time>
      </trkpt>
      <trkpt lat="43.62898" lon="7.02782">
        <ele>170.80000305176</ele>
        <time>2011-05-27T10:34:54.000Z</time>
      </trkpt>
      <trkpt lat="43.62896" lon="7.02776">
        <ele>170.80000305176</ele>
        <time>2011-05-27T10:34:57.000Z</time>
      </trkpt>
      <trkpt lat="43.62881" lon="7.02766">
        <ele>172</ele>
        <time>2011-05-27T10:35:05.000Z</time>
      </trkpt>
      <trkpt lat="43.62872" lon="7.02766">
        <ele>172.80000305176</ele>
        <time>2011-05-27T10:35:11.000Z</time>
      </trkpt>
      <trkpt lat="43.62868" lon="7.02768">
        <ele>173.19999694824</ele>
        <time>2011-05-27T10:35:15.000Z</time>
      </trkpt>
      <trkpt lat="43.62866" lon="7.0277">
        <ele>173.60000610352</ele>
        <time>2011-05-27T10:35:21.000Z</time>
      </trkpt>
      <trkpt lat="43.62867" lon="7.02771">
        <ele>173.60000610352</ele>
        <time>2011-05-27T10:35:26.000Z</time>
      </trkpt>
      <trkpt lat="43.62868" lon="7.0277">
        <ele>173.39999389648</ele>
        <time>2011-05-27T10:35:34.000Z</time>
      </trkpt>
      <trkpt lat="43.6287" lon="7.0277">
        <ele>173.19999694824</ele>
        <time>2011-05-27T10:35:55.000Z</time>
      </trkpt>
      <trkpt lat="43.6287" lon="7.02769">
        <ele>173.19999694824</ele>
        <time>2011-05-27T10:36:09.000Z</time>
      </trkpt>
      <trkpt lat="43.6287" lon="7.02769">
        <ele>173.19999694824</ele>
        <time>2011-05-27T10:36:20.000Z</time>
      </trkpt>
      <trkpt lat="43.62866" lon="7.02766">
        <ele>173.19999694824</ele>
        <time>2011-05-27T10:36:31.000Z</time>
      </trkpt>
      <trkpt lat="43.62857" lon="7.02753">
        <ele>172.80000305176</ele>
        <time>2011-05-27T10:36:37.000Z</time>
      </trkpt>
      <trkpt lat="43.62843" lon="7.02735">
        <ele>173</ele>
        <time>2011-05-27T10:36:45.000Z</time>
      </trkpt>
      <trkpt lat="43.62828" lon="7.02721">
        <ele>175</ele>
        <time>2011-05-27T10:36:53.000Z</time>
      </trkpt>
      <trkpt lat="43.62815" lon="7.02715">
        <ele>179.19999694824</ele>
        <time>2011-05-27T10:36:59.000Z</time>
      </trkpt>
      <trkpt lat="43.62798" lon="7.02706">
        <ele>184</ele>
        <time>2011-05-27T10:37:07.000Z</time>
      </trkpt>
      <trkpt lat="43.62785" lon="7.02692">
        <ele>186</ele>
        <time>2011-05-27T10:37:14.000Z</time>
      </trkpt>
      <trkpt lat="43.62776" lon="7.02678">
        <ele>186.19999694824</ele>
        <time>2011-05-27T10:37:20.000Z</time>
      </trkpt>
      <trkpt lat="43.62769" lon="7.02656">
        <ele>184.39999389648</ele>
        <time>2011-05-27T10:37:27.000Z</time>
      </trkpt>
      <trkpt lat="43.62757" lon="7.02636">
        <ele>183.39999389648</ele>
        <time>2011-05-27T10:37:34.000Z</time>
      </trkpt>
      <trkpt lat="43.62741" lon="7.02618">
        <ele>182.60000610352</ele>
        <time>2011-05-27T10:37:42.000Z</time>
      </trkpt>
      <trkpt lat="43.62722" lon="7.02608">
        <ele>183</ele>
        <time>2011-05-27T10:37:50.000Z</time>
      </trkpt>
      <trkpt lat="43.62708" lon="7.02603">
        <ele>183.80000305176</ele>
        <time>2011-05-27T10:37:56.000Z</time>
      </trkpt>
      <trkpt lat="43.62692" lon="7.02603">
        <ele>185.80000305176</ele>
        <time>2011-05-27T10:38:02.000Z</time>
      </trkpt>
      <trkpt lat="43.62671" lon="7.02608">
        <ele>189.80000305176</ele>
        <time>2011-05-27T10:38:10.000Z</time>
      </trkpt>
      <trkpt lat="43.6265" lon="7.02616">
        <ele>192</ele>
        <time>2011-05-27T10:38:18.000Z</time>
      </trkpt>
      <trkpt lat="43.62629" lon="7.0263">
        <ele>195</ele>
        <time>2011-05-27T10:38:27.000Z</time>
      </trkpt>
      <trkpt lat="43.62609" lon="7.02643">
        <ele>197.80000305176</ele>
        <time>2011-05-27T10:38:36.000Z</time>
      </trkpt>
      <trkpt lat="43.62589" lon="7.02649">
        <ele>198.80000305176</ele>
        <time>2011-05-27T10:38:44.000Z</time>
      </trkpt>
      <trkpt lat="43.6257" lon="7.02654">
        <ele>200.80000305176</ele>
        <time>2011-05-27T10:38:52.000Z</time>
      </trkpt>
      <trkpt lat="43.62553" lon="7.02651">
        <ele>201.80000305176</ele>
        <time>2011-05-27T10:39:00.000Z</time>
      </trkpt>
      <trkpt lat="43.62528" lon="7.02647">
        <ele>203.39999389648</ele>
        <time>2011-05-27T10:39:10.000Z</time>
      </trkpt>
      <trkpt lat="43.62507" lon="7.02647">
        <ele>205.39999389648</ele>
        <time>2011-05-27T10:39:18.000Z</time>
      </trkpt>
      <trkpt lat="43.62489" lon="7.02647">
        <ele>207.60000610352</ele>
        <time>2011-05-27T10:39:25.000Z</time>
      </trkpt>
      <trkpt lat="43.6247" lon="7.02644">
        <ele>209.19999694824</ele>
        <time>2011-05-27T10:39:32.000Z</time>
      </trkpt>
      <trkpt lat="43.62462" lon="7.02641">
        <ele>209.80000305176</ele>
        <time>2011-05-27T10:39:36.000Z</time>
      </trkpt>
      <trkpt lat="43.62446" lon="7.02633">
        <ele>210.39999389648</ele>
        <time>2011-05-27T10:39:42.000Z</time>
      </trkpt>
      <trkpt lat="43.62431" lon="7.02619">
        <ele>210.60000610352</ele>
        <time>2011-05-27T10:39:48.000Z</time>
      </trkpt>
      <trkpt lat="43.62412" lon="7.02599">
        <ele>210.60000610352</ele>
        <time>2011-05-27T10:39:54.000Z</time>
      </trkpt>
      <trkpt lat="43.624" lon="7.02572">
        <ele>210.19999694824</ele>
        <time>2011-05-27T10:40:00.000Z</time>
      </trkpt>
      <trkpt lat="43.62387" lon="7.02546">
        <ele>211.19999694824</ele>
        <time>2011-05-27T10:40:06.000Z</time>
      </trkpt>
      <trkpt lat="43.62374" lon="7.02519">
        <ele>212</ele>
        <time>2011-05-27T10:40:12.000Z</time>
      </trkpt>
      <trkpt lat="43.62365" lon="7.02492">
        <ele>212.80000305176</ele>
        <time>2011-05-27T10:40:18.000Z</time>
      </trkpt>
      <trkpt lat="43.62354" lon="7.02482">
        <ele>214</ele>
        <time>2011-05-27T10:40:22.000Z</time>
      </trkpt>
      <trkpt lat="43.62345" lon="7.02491">
        <ele>214.80000305176</ele>
        <time>2011-05-27T10:40:26.000Z</time>
      </trkpt>
      <trkpt lat="43.62343" lon="7.02512">
        <ele>215.39999389648</ele>
        <time>2011-05-27T10:40:31.000Z</time>
      </trkpt>
      <trkpt lat="43.62344" lon="7.02538">
        <ele>216.39999389648</ele>
        <time>2011-05-27T10:40:38.000Z</time>
      </trkpt>
      <trkpt lat="43.62341" lon="7.02564">
        <ele>218</ele>
        <time>2011-05-27T10:40:46.000Z</time>
      </trkpt>
      <trkpt lat="43.62343" lon="7.0259">
        <ele>219</ele>
        <time>2011-05-27T10:40:53.000Z</time>
      </trkpt>
      <trkpt lat="43.62346" lon="7.02611">
        <ele>220.39999389648</ele>
        <time>2011-05-27T10:40:59.000Z</time>
      </trkpt>
      <trkpt lat="43.62349" lon="7.02632">
        <ele>221.80000305176</ele>
        <time>2011-05-27T10:41:06.000Z</time>
      </trkpt>
      <trkpt lat="43.62353" lon="7.02657">
        <ele>223.39999389648</ele>
        <time>2011-05-27T10:41:14.000Z</time>
      </trkpt>
      <trkpt lat="43.62365" lon="7.02682">
        <ele>224.80000305176</ele>
        <time>2011-05-27T10:41:23.000Z</time>
      </trkpt>
      <trkpt lat="43.6237" lon="7.0269">
        <ele>225.19999694824</ele>
        <time>2011-05-27T10:41:29.000Z</time>
      </trkpt>
      <trkpt lat="43.62384" lon="7.02686">
        <ele>223.80000305176</ele>
        <time>2011-05-27T10:42:23.000Z</time>
      </trkpt>
      <trkpt lat="43.62396" lon="7.0269">
        <ele>223.39999389648</ele>
        <time>2011-05-27T10:42:27.000Z</time>
      </trkpt>
      <trkpt lat="43.6242" lon="7.02691">
        <ele>221.80000305176</ele>
        <time>2011-05-27T10:42:33.000Z</time>
      </trkpt>
      <trkpt lat="43.62433" lon="7.02695">
        <ele>221.19999694824</ele>
        <time>2011-05-27T10:42:36.000Z</time>
      </trkpt>
      <trkpt lat="43.62453" lon="7.02704">
        <ele>220.80000305176</ele>
        <time>2011-05-27T10:42:41.000Z</time>
      </trkpt>
      <trkpt lat="43.62464" lon="7.02707">
        <ele>220.39999389648</ele>
        <time>2011-05-27T10:42:45.000Z</time>
      </trkpt>
      <trkpt lat="43.62467" lon="7.02708">
        <ele>220.39999389648</ele>
        <time>2011-05-27T10:42:46.000Z</time>
      </trkpt>
      <trkpt lat="43.62481" lon="7.02713">
        <ele>220.19999694824</ele>
        <time>2011-05-27T10:42:50.000Z</time>
      </trkpt>
      <trkpt lat="43.62503" lon="7.02716">
        <ele>219.19999694824</ele>
        <time>2011-05-27T10:42:55.000Z</time>
      </trkpt>
      <trkpt lat="43.62527" lon="7.02717">
        <ele>218</ele>
        <time>2011-05-27T10:43:00.000Z</time>
      </trkpt>
      <trkpt lat="43.62537" lon="7.02721">
        <ele>218.19999694824</ele>
        <time>2011-05-27T10:43:03.000Z</time>
      </trkpt>
      <trkpt lat="43.62544" lon="7.02725">
        <ele>218.60000610352</ele>
        <time>2011-05-27T10:43:05.000Z</time>
      </trkpt>
      <trkpt lat="43.6256" lon="7.02733">
        <ele>219.39999389648</ele>
        <time>2011-05-27T10:43:10.000Z</time>
      </trkpt>
      <trkpt lat="43.62573" lon="7.02736">
        <ele>219.19999694824</ele>
        <time>2011-05-27T10:43:14.000Z</time>
      </trkpt>
      <trkpt lat="43.62593" lon="7.02738">
        <ele>219.19999694824</ele>
        <time>2011-05-27T10:43:19.000Z</time>
      </trkpt>
      <trkpt lat="43.62606" lon="7.02744">
        <ele>220.39999389648</ele>
        <time>2011-05-27T10:43:22.000Z</time>
      </trkpt>
      <trkpt lat="43.62623" lon="7.02746">
        <ele>220.60000610352</ele>
        <time>2011-05-27T10:43:26.000Z</time>
      </trkpt>
      <trkpt lat="43.62635" lon="7.02746">
        <ele>220.60000610352</ele>
        <time>2011-05-27T10:43:30.000Z</time>
      </trkpt>
      <trkpt lat="43.62651" lon="7.02731">
        <ele>217.39999389648</ele>
        <time>2011-05-27T10:43:36.000Z</time>
      </trkpt>
      <trkpt lat="43.62665" lon="7.02726">
        <ele>216.60000610352</ele>
        <time>2011-05-27T10:43:41.000Z</time>
      </trkpt>
      <trkpt lat="43.62679" lon="7.02725">
        <ele>214.39999389648</ele>
        <time>2011-05-27T10:43:46.000Z</time>
      </trkpt>
      <trkpt lat="43.62691" lon="7.02729">
        <ele>213.39999389648</ele>
        <time>2011-05-27T10:43:50.000Z</time>
      </trkpt>
      <trkpt lat="43.6271" lon="7.02745">
        <ele>213.60000610352</ele>
        <time>2011-05-27T10:43:56.000Z</time>
      </trkpt>
      <trkpt lat="43.62723" lon="7.02758">
        <ele>213.60000610352</ele>
        <time>2011-05-27T10:44:00.000Z</time>
      </trkpt>
      <trkpt lat="43.62736" lon="7.02771">
        <ele>212.80000305176</ele>
        <time>2011-05-27T10:44:04.000Z</time>
      </trkpt>
      <trkpt lat="43.62742" lon="7.02775">
        <ele>212.19999694824</ele>
        <time>2011-05-27T10:44:06.000Z</time>
      </trkpt>
      <trkpt lat="43.62747" lon="7.02784">
        <ele>212.19999694824</ele>
        <time>2011-05-27T10:44:10.000Z</time>
      </trkpt>
      <trkpt lat="43.62751" lon="7.02792">
        <ele>212</ele>
        <time>2011-05-27T10:44:16.000Z</time>
      </trkpt>
      <trkpt lat="43.62753" lon="7.02793">
        <ele>211.39999389648</ele>
        <time>2011-05-27T10:44:18.000Z</time>
      </trkpt>
      <trkpt lat="43.62752" lon="7.02795">
        <ele>211.60000610352</ele>
        <time>2011-05-27T10:44:23.000Z</time>
      </trkpt>
      <trkpt lat="43.62753" lon="7.0279">
        <ele>211</ele>
        <time>2011-05-27T10:44:27.000Z</time>
      </trkpt>
      <trkpt lat="43.62754" lon="7.0279">
        <ele>210.80000305176</ele>
        <time>2011-05-27T10:44:35.000Z</time>
      </trkpt>
      <trkpt lat="43.62756" lon="7.02791">
        <ele>210.19999694824</ele>
        <time>2011-05-27T10:44:49.000Z</time>
      </trkpt>
      <trkpt lat="43.62757" lon="7.0279">
        <ele>209.60000610352</ele>
        <time>2011-05-27T10:44:56.000Z</time>
      </trkpt>
      <trkpt lat="43.62757" lon="7.02793">
        <ele>209.80000305176</ele>
        <time>2011-05-27T10:45:21.000Z</time>
      </trkpt>
      <trkpt lat="43.62757" lon="7.02793">
        <ele>209.80000305176</ele>
        <time>2011-05-27T10:45:30.000Z</time>
      </trkpt>
      <trkpt lat="43.6276" lon="7.02789">
        <ele>208.19999694824</ele>
        <time>2011-05-27T10:45:40.000Z</time>
      </trkpt>
      <trkpt lat="43.6276" lon="7.02795">
        <ele>208.60000610352</ele>
        <time>2011-05-27T10:46:04.000Z</time>
      </trkpt>
      <trkpt lat="43.62758" lon="7.02797">
        <ele>209.60000610352</ele>
        <time>2011-05-27T10:46:10.000Z</time>
      </trkpt>
      <trkpt lat="43.62758" lon="7.02794">
        <ele>209.60000610352</ele>
        <time>2011-05-27T10:46:16.000Z</time>
      </trkpt>
      <trkpt lat="43.62756" lon="7.02793">
        <ele>210</ele>
        <time>2011-05-27T10:46:31.000Z</time>
      </trkpt>
      <trkpt lat="43.62756" lon="7.02792">
        <ele>210</ele>
        <time>2011-05-27T10:46:46.000Z</time>
      </trkpt>
      <trkpt lat="43.62757" lon="7.02795">
        <ele>210</ele>
        <time>2011-05-27T10:46:54.000Z</time>
      </trkpt>
      <trkpt lat="43.62763" lon="7.02808">
        <ele>208.80000305176</ele>
        <time>2011-05-27T10:47:00.000Z</time>
      </trkpt>
      <trkpt lat="43.62763" lon="7.02826">
        <ele>210.60000610352</ele>
        <time>2011-05-27T10:47:04.000Z</time>
      </trkpt>
      <trkpt lat="43.62765" lon="7.02845">
        <ele>211.39999389648</ele>
        <time>2011-05-27T10:47:08.000Z</time>
      </trkpt>
      <trkpt lat="43.62773" lon="7.02854">
        <ele>209.39999389648</ele>
        <time>2011-05-27T10:47:12.000Z</time>
      </trkpt>
      <trkpt lat="43.62775" lon="7.02853">
        <ele>208.80000305176</ele>
        <time>2011-05-27T10:47:13.000Z</time>
      </trkpt>
      <trkpt lat="43.62777" lon="7.02846">
        <ele>207.39999389648</ele>
        <time>2011-05-27T10:47:19.000Z</time>
      </trkpt>
      <trkpt lat="43.62779" lon="7.02845">
        <ele>206.39999389648</ele>
        <time>2011-05-27T10:47:25.000Z</time>
      </trkpt>
      <trkpt lat="43.62782" lon="7.02849">
        <ele>206</ele>
        <time>2011-05-27T10:47:29.000Z</time>
      </trkpt>
      <trkpt lat="43.62787" lon="7.02848">
        <ele>204.19999694824</ele>
        <time>2011-05-27T10:47:32.000Z</time>
      </trkpt>
      <trkpt lat="43.62794" lon="7.02847">
        <ele>201.80000305176</ele>
        <time>2011-05-27T10:47:38.000Z</time>
      </trkpt>
      <trkpt lat="43.62792" lon="7.0285">
        <ele>202.60000610352</ele>
        <time>2011-05-27T10:47:45.000Z</time>
      </trkpt>
      <trkpt lat="43.62789" lon="7.02868">
        <ele>205.39999389648</ele>
        <time>2011-05-27T10:48:05.000Z</time>
      </trkpt>
      <trkpt lat="43.6279" lon="7.02852">
        <ele>203.39999389648</ele>
        <time>2011-05-27T10:48:41.000Z</time>
      </trkpt>
      <trkpt lat="43.62792" lon="7.02853">
        <ele>203</ele>
        <time>2011-05-27T10:48:48.000Z</time>
      </trkpt>
      <trkpt lat="43.62792" lon="7.02856">
        <ele>203</ele>
        <time>2011-05-27T10:49:20.000Z</time>
      </trkpt>
      <trkpt lat="43.62796" lon="7.02854">
        <ele>201.80000305176</ele>
        <time>2011-05-27T10:49:29.000Z</time>
      </trkpt>
      <trkpt lat="43.62808" lon="7.02862">
        <ele>198.80000305176</ele>
        <time>2011-05-27T10:49:34.000Z</time>
      </trkpt>
      <trkpt lat="43.6282" lon="7.02875">
        <ele>196.60000610352</ele>
        <time>2011-05-27T10:49:38.000Z</time>
      </trkpt>
      <trkpt lat="43.62824" lon="7.02875">
        <ele>195.39999389648</ele>
        <time>2011-05-27T10:49:40.000Z</time>
      </trkpt>
      <trkpt lat="43.6283" lon="7.0287">
        <ele>192.80000305176</ele>
        <time>2011-05-27T10:49:45.000Z</time>
      </trkpt>
      <trkpt lat="43.62844" lon="7.02878">
        <ele>189.80000305176</ele>
        <time>2011-05-27T10:49:49.000Z</time>
      </trkpt>
      <trkpt lat="43.62857" lon="7.0287">
        <ele>185.39999389648</ele>
        <time>2011-05-27T10:49:53.000Z</time>
      </trkpt>
      <trkpt lat="43.62862" lon="7.02858">
        <ele>182.60000610352</ele>
        <time>2011-05-27T10:49:56.000Z</time>
      </trkpt>
      <trkpt lat="43.62857" lon="7.02849">
        <ele>182.60000610352</ele>
        <time>2011-05-27T10:49:58.000Z</time>
      </trkpt>
      <trkpt lat="43.62852" lon="7.02833">
        <ele>181.60000610352</ele>
        <time>2011-05-27T10:50:03.000Z</time>
      </trkpt>
      <trkpt lat="43.62856" lon="7.02828">
        <ele>180.60000610352</ele>
        <time>2011-05-27T10:50:28.000Z</time>
      </trkpt>
      <trkpt lat="43.6286" lon="7.02811">
        <ele>178</ele>
        <time>2011-05-27T10:50:32.000Z</time>
      </trkpt>
      <trkpt lat="43.6286" lon="7.02807">
        <ele>177.60000610352</ele>
        <time>2011-05-27T10:50:33.000Z</time>
      </trkpt>
      <trkpt lat="43.62858" lon="7.02794">
        <ele>176.60000610352</ele>
        <time>2011-05-27T10:50:38.000Z</time>
      </trkpt>
      <trkpt lat="43.62866" lon="7.02779">
        <ele>174.39999389648</ele>
        <time>2011-05-27T10:50:42.000Z</time>
      </trkpt>
      <trkpt lat="43.62869" lon="7.02768">
        <ele>173.19999694824</ele>
        <time>2011-05-27T10:50:45.000Z</time>
      </trkpt>
      <trkpt lat="43.62871" lon="7.02766">
        <ele>172.80000305176</ele>
        <time>2011-05-27T10:50:48.000Z</time>
      </trkpt>
      <trkpt lat="43.62871" lon="7.02767">
        <ele>172.80000305176</ele>
        <time>2011-05-27T10:51:05.000Z</time>
      </trkpt>
      <trkpt lat="43.62876" lon="7.02765">
        <ele>172.19999694824</ele>
        <time>2011-05-27T10:51:12.000Z</time>
      </trkpt>
      <trkpt lat="43.6289" lon="7.02771">
        <ele>171.39999389648</ele>
        <time>2011-05-27T10:51:17.000Z</time>
      </trkpt>
      <trkpt lat="43.62905" lon="7.02785">
        <ele>170</ele>
        <time>2011-05-27T10:51:22.000Z</time>
      </trkpt>
      <trkpt lat="43.62922" lon="7.0279">
        <ele>168.39999389648</ele>
        <time>2011-05-27T10:51:26.000Z</time>
      </trkpt>
      <trkpt lat="43.62931" lon="7.02788">
        <ele>168.19999694824</ele>
        <time>2011-05-27T10:51:28.000Z</time>
      </trkpt>
      <trkpt lat="43.62944" lon="7.02784">
        <ele>168.19999694824</ele>
        <time>2011-05-27T10:51:32.000Z</time>
      </trkpt>
      <trkpt lat="43.6296" lon="7.02774">
        <ele>168.39999389648</ele>
        <time>2011-05-27T10:51:38.000Z</time>
      </trkpt>
      <trkpt lat="43.62976" lon="7.02757">
        <ele>168.80000305176</ele>
        <time>2011-05-27T10:51:45.000Z</time>
      </trkpt>
      <trkpt lat="43.62988" lon="7.0274">
        <ele>169.80000305176</ele>
        <time>2011-05-27T10:51:51.000Z</time>
      </trkpt>
      <trkpt lat="43.63003" lon="7.02714">
        <ele>172.60000610352</ele>
        <time>2011-05-27T10:52:00.000Z</time>
      </trkpt>
      <trkpt lat="43.63017" lon="7.02688">
        <ele>174.60000610352</ele>
        <time>2011-05-27T10:52:08.000Z</time>
      </trkpt>
      <trkpt lat="43.63028" lon="7.02663">
        <ele>176</ele>
        <time>2011-05-27T10:52:15.000Z</time>
      </trkpt>
      <trkpt lat="43.6304" lon="7.02624">
        <ele>179</ele>
        <time>2011-05-27T10:52:24.000Z</time>
      </trkpt>
      <trkpt lat="43.63054" lon="7.02595">
        <ele>179.39999389648</ele>
        <time>2011-05-27T10:52:31.000Z</time>
      </trkpt>
      <trkpt lat="43.63072" lon="7.02569">
        <ele>179.19999694824</ele>
        <time>2011-05-27T10:52:36.000Z</time>
      </trkpt>
      <trkpt lat="43.6308" lon="7.02555">
        <ele>180</ele>
        <time>2011-05-27T10:52:38.000Z</time>
      </trkpt>
      <trkpt lat="43.631" lon="7.02539">
        <ele>181.19999694824</ele>
        <time>2011-05-27T10:52:42.000Z</time>
      </trkpt>
      <trkpt lat="43.63105" lon="7.02539">
        <ele>181.19999694824</ele>
        <time>2011-05-27T10:52:43.000Z</time>
      </trkpt>
      <trkpt lat="43.63113" lon="7.02539">
        <ele>180.80000305176</ele>
        <time>2011-05-27T10:52:45.000Z</time>
      </trkpt>
      <trkpt lat="43.63133" lon="7.02544">
        <ele>179.80000305176</ele>
        <time>2011-05-27T10:52:51.000Z</time>
      </trkpt>
      <trkpt lat="43.63153" lon="7.02552">
        <ele>178.60000610352</ele>
        <time>2011-05-27T10:52:59.000Z</time>
      </trkpt>
      <trkpt lat="43.63163" lon="7.02568">
        <ele>177.60000610352</ele>
        <time>2011-05-27T10:53:05.000Z</time>
      </trkpt>
      <trkpt lat="43.63166" lon="7.02591">
        <ele>177.80000305176</ele>
        <time>2011-05-27T10:53:11.000Z</time>
      </trkpt>
      <trkpt lat="43.63163" lon="7.02609">
        <ele>180</ele>
        <time>2011-05-27T10:53:16.000Z</time>
      </trkpt>
      <trkpt lat="43.63154" lon="7.02629">
        <ele>181.60000610352</ele>
        <time>2011-05-27T10:53:23.000Z</time>
      </trkpt>
      <trkpt lat="43.63148" lon="7.02643">
        <ele>182.19999694824</ele>
        <time>2011-05-27T10:53:28.000Z</time>
      </trkpt>
      <trkpt lat="43.63139" lon="7.02672">
        <ele>183.80000305176</ele>
        <time>2011-05-27T10:53:37.000Z</time>
      </trkpt>
      <trkpt lat="43.63129" lon="7.02706">
        <ele>186</ele>
        <time>2011-05-27T10:53:47.000Z</time>
      </trkpt>
      <trkpt lat="43.6312" lon="7.0273">
        <ele>186.39999389648</ele>
        <time>2011-05-27T10:53:54.000Z</time>
      </trkpt>
      <trkpt lat="43.6311" lon="7.0276">
        <ele>186.80000305176</ele>
        <time>2011-05-27T10:54:02.000Z</time>
      </trkpt>
      <trkpt lat="43.631" lon="7.02791">
        <ele>187.39999389648</ele>
        <time>2011-05-27T10:54:10.000Z</time>
      </trkpt>
      <trkpt lat="43.63089" lon="7.02827">
        <ele>188</ele>
        <time>2011-05-27T10:54:19.000Z</time>
      </trkpt>
      <trkpt lat="43.63083" lon="7.02861">
        <ele>187.39999389648</ele>
        <time>2011-05-27T10:54:27.000Z</time>
      </trkpt>
      <trkpt lat="43.63083" lon="7.02891">
        <ele>188.19999694824</ele>
        <time>2011-05-27T10:54:34.000Z</time>
      </trkpt>
      <trkpt lat="43.63089" lon="7.02929">
        <ele>190.60000610352</ele>
        <time>2011-05-27T10:54:43.000Z</time>
      </trkpt>
      <trkpt lat="43.63099" lon="7.02955">
        <ele>193.60000610352</ele>
        <time>2011-05-27T10:54:50.000Z</time>
      </trkpt>
      <trkpt lat="43.63106" lon="7.02982">
        <ele>195.60000610352</ele>
        <time>2011-05-27T10:54:57.000Z</time>
      </trkpt>
      <trkpt lat="43.63108" lon="7.03012">
        <ele>195.39999389648</ele>
        <time>2011-05-27T10:55:04.000Z</time>
      </trkpt>
      <trkpt lat="43.63115" lon="7.03043">
        <ele>196.39999389648</ele>
        <time>2011-05-27T10:55:11.000Z</time>
      </trkpt>
      <trkpt lat="43.6312" lon="7.03062">
        <ele>197.60000610352</ele>
        <time>2011-05-27T10:55:16.000Z</time>
      </trkpt>
      <trkpt lat="43.63125" lon="7.03093">
        <ele>197.80000305176</ele>
        <time>2011-05-27T10:55:23.000Z</time>
      </trkpt>
      <trkpt lat="43.63126" lon="7.03121">
        <ele>195.60000610352</ele>
        <time>2011-05-27T10:55:28.000Z</time>
      </trkpt>
      <trkpt lat="43.63127" lon="7.03139">
        <ele>194.80000305176</ele>
        <time>2011-05-27T10:55:31.000Z</time>
      </trkpt>
      <trkpt lat="43.6313" lon="7.03152">
        <ele>194.80000305176</ele>
        <time>2011-05-27T10:55:33.000Z</time>
      </trkpt>
      <trkpt lat="43.63141" lon="7.03182">
        <ele>195.80000305176</ele>
        <time>2011-05-27T10:55:38.000Z</time>
      </trkpt>
      <trkpt lat="43.63159" lon="7.03222">
        <ele>197.19999694824</ele>
        <time>2011-05-27T10:55:46.000Z</time>
      </trkpt>
      <trkpt lat="43.63163" lon="7.03232">
        <ele>197.39999389648</ele>
        <time>2011-05-27T10:55:48.000Z</time>
      </trkpt>
      <trkpt lat="43.63172" lon="7.03275">
        <ele>196.39999389648</ele>
        <time>2011-05-27T10:55:55.000Z</time>
      </trkpt>
      <trkpt lat="43.63184" lon="7.0333">
        <ele>194.80000305176</ele>
        <time>2011-05-27T10:56:06.000Z</time>
      </trkpt>
      <trkpt lat="43.63189" lon="7.03348">
        <ele>194.39999389648</ele>
        <time>2011-05-27T10:56:10.000Z</time>
      </trkpt>
      <trkpt lat="43.63197" lon="7.0335">
        <ele>195.80000305176</ele>
        <time>2011-05-27T10:56:14.000Z</time>
      </trkpt>
      <trkpt lat="43.632" lon="7.03337">
        <ele>197.60000610352</ele>
        <time>2011-05-27T10:56:18.000Z</time>
      </trkpt>
      <trkpt lat="43.63198" lon="7.03308">
        <ele>199.80000305176</ele>
        <time>2011-05-27T10:56:27.000Z</time>
      </trkpt>
      <trkpt lat="43.632" lon="7.03287">
        <ele>201.80000305176</ele>
        <time>2011-05-27T10:56:33.000Z</time>
      </trkpt>
      <trkpt lat="43.632" lon="7.0327">
        <ele>203.39999389648</ele>
        <time>2011-05-27T10:56:38.000Z</time>
      </trkpt>
      <trkpt lat="43.63208" lon="7.03268">
        <ele>205.39999389648</ele>
        <time>2011-05-27T10:56:42.000Z</time>
      </trkpt>
      <trkpt lat="43.63211" lon="7.03276">
        <ele>205.39999389648</ele>
        <time>2011-05-27T10:56:45.000Z</time>
      </trkpt>
      <trkpt lat="43.63217" lon="7.03294">
        <ele>205.19999694824</ele>
        <time>2011-05-27T10:56:52.000Z</time>
      </trkpt>
      <trkpt lat="43.6323" lon="7.03309">
        <ele>206.80000305176</ele>
        <time>2011-05-27T10:57:00.000Z</time>
      </trkpt>
      <trkpt lat="43.63244" lon="7.03309">
        <ele>209.80000305176</ele>
        <time>2011-05-27T10:57:06.000Z</time>
      </trkpt>
      <trkpt lat="43.63258" lon="7.03299">
        <ele>212.39999389648</ele>
        <time>2011-05-27T10:57:13.000Z</time>
      </trkpt>
      <trkpt lat="43.63271" lon="7.03284">
        <ele>214.19999694824</ele>
        <time>2011-05-27T10:57:21.000Z</time>
      </trkpt>
      <trkpt lat="43.63283" lon="7.03273">
        <ele>215.80000305176</ele>
        <time>2011-05-27T10:57:27.000Z</time>
      </trkpt>
      <trkpt lat="43.63295" lon="7.03259">
        <ele>217.60000610352</ele>
        <time>2011-05-27T10:57:34.000Z</time>
      </trkpt>
      <trkpt lat="43.63308" lon="7.03246">
        <ele>219.39999389648</ele>
        <time>2011-05-27T10:57:41.000Z</time>
      </trkpt>
      <trkpt lat="43.63325" lon="7.03237">
        <ele>220.80000305176</ele>
        <time>2011-05-27T10:57:48.000Z</time>
      </trkpt>
      <trkpt lat="43.63339" lon="7.03225">
        <ele>221.60000610352</ele>
        <time>2011-05-27T10:57:55.000Z</time>
      </trkpt>
      <trkpt lat="43.63353" lon="7.03209">
        <ele>221.60000610352</ele>
        <time>2011-05-27T10:58:03.000Z</time>
      </trkpt>
      <trkpt lat="43.63366" lon="7.03196">
        <ele>221.60000610352</ele>
        <time>2011-05-27T10:58:10.000Z</time>
      </trkpt>
      <trkpt lat="43.63378" lon="7.0318">
        <ele>221.80000305176</ele>
        <time>2011-05-27T10:58:17.000Z</time>
      </trkpt>
      <trkpt lat="43.63394" lon="7.0316">
        <ele>221.80000305176</ele>
        <time>2011-05-27T10:58:25.000Z</time>
      </trkpt>
      <trkpt lat="43.63406" lon="7.03139">
        <ele>221.60000610352</ele>
        <time>2011-05-27T10:58:32.000Z</time>
      </trkpt>
      <trkpt lat="43.63414" lon="7.03115">
        <ele>222.39999389648</ele>
        <time>2011-05-27T10:58:39.000Z</time>
      </trkpt>
      <trkpt lat="43.63417" lon="7.03099">
        <ele>223</ele>
        <time>2011-05-27T10:58:44.000Z</time>
      </trkpt>
      <trkpt lat="43.63421" lon="7.03079">
        <ele>223</ele>
        <time>2011-05-27T10:58:50.000Z</time>
      </trkpt>
      <trkpt lat="43.63421" lon="7.03055">
        <ele>223.60000610352</ele>
        <time>2011-05-27T10:58:57.000Z</time>
      </trkpt>
      <trkpt lat="43.63419" lon="7.03031">
        <ele>224.39999389648</ele>
        <time>2011-05-27T10:59:04.000Z</time>
      </trkpt>
      <trkpt lat="43.63418" lon="7.03005">
        <ele>225.39999389648</ele>
        <time>2011-05-27T10:59:12.000Z</time>
      </trkpt>
      <trkpt lat="43.6342" lon="7.02976">
        <ele>225</ele>
        <time>2011-05-27T10:59:21.000Z</time>
      </trkpt>
      <trkpt lat="43.63421" lon="7.02967">
        <ele>224.80000305176</ele>
        <time>2011-05-27T10:59:24.000Z</time>
      </trkpt>
      <trkpt lat="43.6342" lon="7.02969">
        <ele>225</ele>
        <time>2011-05-27T10:59:28.000Z</time>
      </trkpt>
      <trkpt lat="43.6342" lon="7.02975">
        <ele>225.19999694824</ele>
        <time>2011-05-27T10:59:31.000Z</time>
      </trkpt>
      <trkpt lat="43.63421" lon="7.02976">
        <ele>224.80000305176</ele>
        <time>2011-05-27T10:59:33.000Z</time>
      </trkpt>
      <trkpt lat="43.63421" lon="7.02972">
        <ele>224.80000305176</ele>
        <time>2011-05-27T10:59:39.000Z</time>
      </trkpt>
      <trkpt lat="43.63423" lon="7.02973">
        <ele>224.19999694824</ele>
        <time>2011-05-27T10:59:49.000Z</time>
      </trkpt>
      <trkpt lat="43.63424" lon="7.02974">
        <ele>224</ele>
        <time>2011-05-27T10:59:59.000Z</time>
      </trkpt>
      <trkpt lat="43.63424" lon="7.02974">
        <ele>224</ele>
        <time>2011-05-27T11:00:09.000Z</time>
      </trkpt>
      <trkpt lat="43.63424" lon="7.02974">
        <ele>224</ele>
        <time>2011-05-27T11:00:19.000Z</time>
      </trkpt>
      <trkpt lat="43.63422" lon="7.02973">
        <ele>224.39999389648</ele>
        <time>2011-05-27T11:00:50.000Z</time>
      </trkpt>
      <trkpt lat="43.63423" lon="7.02973">
        <ele>224.19999694824</ele>
        <time>2011-05-27T11:01:05.000Z</time>
      </trkpt>
      <trkpt lat="43.63424" lon="7.02973">
        <ele>224.19999694824</ele>
        <time>2011-05-27T11:01:15.000Z</time>
      </trkpt>
      <trkpt lat="43.63422" lon="7.02972">
        <ele>224.60000610352</ele>
        <time>2011-05-27T11:01:33.000Z</time>
      </trkpt>
      <trkpt lat="43.63431" lon="7.02963">
        <ele>222.39999389648</ele>
        <time>2011-05-27T11:01:39.000Z</time>
      </trkpt>
      <trkpt lat="43.63441" lon="7.0295">
        <ele>220</ele>
        <time>2011-05-27T11:01:44.000Z</time>
      </trkpt>
      <trkpt lat="43.63445" lon="7.02932">
        <ele>219</ele>
        <time>2011-05-27T11:01:49.000Z</time>
      </trkpt>
      <trkpt lat="43.63449" lon="7.02907">
        <ele>217.60000610352</ele>
        <time>2011-05-27T11:01:54.000Z</time>
      </trkpt>
      <trkpt lat="43.63452" lon="7.0288">
        <ele>215.60000610352</ele>
        <time>2011-05-27T11:01:59.000Z</time>
      </trkpt>
      <trkpt lat="43.63454" lon="7.02865">
        <ele>214.39999389648</ele>
        <time>2011-05-27T11:02:02.000Z</time>
      </trkpt>
      <trkpt lat="43.63454" lon="7.02861">
        <ele>214.19999694824</ele>
        <time>2011-05-27T11:02:06.000Z</time>
      </trkpt>
      <trkpt lat="43.63454" lon="7.02856">
        <ele>214</ele>
        <time>2011-05-27T11:02:11.000Z</time>
      </trkpt>
      <trkpt lat="43.63455" lon="7.02853">
        <ele>213.60000610352</ele>
        <time>2011-05-27T11:02:18.000Z</time>
      </trkpt>
      <trkpt lat="43.63458" lon="7.02853">
        <ele>213</ele>
        <time>2011-05-27T11:02:26.000Z</time>
      </trkpt>
      <trkpt lat="43.63458" lon="7.02853">
        <ele>212.80000305176</ele>
        <time>2011-05-27T11:02:45.000Z</time>
      </trkpt>
      <trkpt lat="43.63458" lon="7.02853">
        <ele>213</ele>
        <time>2011-05-27T11:02:51.000Z</time>
      </trkpt>
      <trkpt lat="43.63458" lon="7.02854">
        <ele>213</ele>
        <time>2011-05-27T11:03:08.000Z</time>
      </trkpt>
      <trkpt lat="43.63458" lon="7.02855">
        <ele>213.19999694824</ele>
        <time>2011-05-27T11:03:18.000Z</time>
      </trkpt>
      <trkpt lat="43.63456" lon="7.02851">
        <ele>213.39999389648</ele>
        <time>2011-05-27T11:03:25.000Z</time>
      </trkpt>
      <trkpt lat="43.63451" lon="7.02843">
        <ele>214</ele>
        <time>2011-05-27T11:03:40.000Z</time>
      </trkpt>
      <trkpt lat="43.63443" lon="7.02824">
        <ele>215</ele>
        <time>2011-05-27T11:03:44.000Z</time>
      </trkpt>
      <trkpt lat="43.63439" lon="7.02789">
        <ele>215.19999694824</ele>
        <time>2011-05-27T11:03:49.000Z</time>
      </trkpt>
      <trkpt lat="43.63439" lon="7.02782">
        <ele>215</ele>
        <time>2011-05-27T11:03:50.000Z</time>
      </trkpt>
      <trkpt lat="43.6345" lon="7.02771">
        <ele>213</ele>
        <time>2011-05-27T11:03:54.000Z</time>
      </trkpt>
      <trkpt lat="43.63462" lon="7.02756">
        <ele>210.80000305176</ele>
        <time>2011-05-27T11:03:59.000Z</time>
      </trkpt>
      <trkpt lat="43.63466" lon="7.02756">
        <ele>210.19999694824</ele>
        <time>2011-05-27T11:04:00.000Z</time>
      </trkpt>
      <trkpt lat="43.63479" lon="7.02764">
        <ele>208</ele>
        <time>2011-05-27T11:04:05.000Z</time>
      </trkpt>
      <trkpt lat="43.63497" lon="7.02764">
        <ele>205.19999694824</ele>
        <time>2011-05-27T11:04:09.000Z</time>
      </trkpt>
      <trkpt lat="43.63519" lon="7.0275">
        <ele>201.19999694824</ele>
        <time>2011-05-27T11:04:13.000Z</time>
      </trkpt>
      <trkpt lat="43.63527" lon="7.02748">
        <ele>200</ele>
        <time>2011-05-27T11:04:14.000Z</time>
      </trkpt>
      <trkpt lat="43.63549" lon="7.02728">
        <ele>197.80000305176</ele>
        <time>2011-05-27T11:04:18.000Z</time>
      </trkpt>
      <trkpt lat="43.63563" lon="7.02712">
        <ele>197</ele>
        <time>2011-05-27T11:04:21.000Z</time>
      </trkpt>
      <trkpt lat="43.63584" lon="7.02692">
        <ele>195.80000305176</ele>
        <time>2011-05-27T11:04:25.000Z</time>
      </trkpt>
      <trkpt lat="43.63599" lon="7.02671">
        <ele>196.19999694824</ele>
        <time>2011-05-27T11:04:28.000Z</time>
      </trkpt>
      <trkpt lat="43.63602" lon="7.02659">
        <ele>196.80000305176</ele>
        <time>2011-05-27T11:04:30.000Z</time>
      </trkpt>
      <trkpt lat="43.63604" lon="7.02638">
        <ele>197.19999694824</ele>
        <time>2011-05-27T11:04:35.000Z</time>
      </trkpt>
      <trkpt lat="43.63604" lon="7.02639">
        <ele>197</ele>
        <time>2011-05-27T11:04:43.000Z</time>
      </trkpt>
      <trkpt lat="43.63608" lon="7.02638">
        <ele>196.80000305176</ele>
        <time>2011-05-27T11:04:50.000Z</time>
      </trkpt>
      <trkpt lat="43.63617" lon="7.02628">
        <ele>196.19999694824</ele>
        <time>2011-05-27T11:04:54.000Z</time>
      </trkpt>
      <trkpt lat="43.63628" lon="7.02617">
        <ele>195.80000305176</ele>
        <time>2011-05-27T11:04:57.000Z</time>
      </trkpt>
      <trkpt lat="43.63641" lon="7.02628">
        <ele>194</ele>
        <time>2011-05-27T11:05:01.000Z</time>
      </trkpt>
      <trkpt lat="43.63643" lon="7.02633">
        <ele>193.39999389648</ele>
        <time>2011-05-27T11:05:02.000Z</time>
      </trkpt>
      <trkpt lat="43.63651" lon="7.02662">
        <ele>190.39999389648</ele>
        <time>2011-05-27T11:05:06.000Z</time>
      </trkpt>
      <trkpt lat="43.63667" lon="7.02681">
        <ele>184.39999389648</ele>
        <time>2011-05-27T11:05:10.000Z</time>
      </trkpt>
      <trkpt lat="43.63682" lon="7.02674">
        <ele>184</ele>
        <time>2011-05-27T11:05:13.000Z</time>
      </trkpt>
      <trkpt lat="43.63704" lon="7.02656">
        <ele>183.60000610352</ele>
        <time>2011-05-27T11:05:17.000Z</time>
      </trkpt>
      <trkpt lat="43.63731" lon="7.02643">
        <ele>182.19999694824</ele>
        <time>2011-05-27T11:05:22.000Z</time>
      </trkpt>
      <trkpt lat="43.63752" lon="7.02634">
        <ele>181.80000305176</ele>
        <time>2011-05-27T11:05:26.000Z</time>
      </trkpt>
      <trkpt lat="43.63762" lon="7.02629">
        <ele>180.60000610352</ele>
        <time>2011-05-27T11:05:28.000Z</time>
      </trkpt>
      <trkpt lat="43.63781" lon="7.0262">
        <ele>178.39999389648</ele>
        <time>2011-05-27T11:05:32.000Z</time>
      </trkpt>
      <trkpt lat="43.63785" lon="7.02616">
        <ele>178.19999694824</ele>
        <time>2011-05-27T11:05:33.000Z</time>
      </trkpt>
      <trkpt lat="43.63804" lon="7.02605">
        <ele>175.80000305176</ele>
        <time>2011-05-27T11:05:37.000Z</time>
      </trkpt>
      <trkpt lat="43.63812" lon="7.026">
        <ele>174.60000610352</ele>
        <time>2011-05-27T11:05:39.000Z</time>
      </trkpt>
      <trkpt lat="43.63818" lon="7.0261">
        <ele>171.80000305176</ele>
        <time>2011-05-27T11:05:43.000Z</time>
      </trkpt>
      <trkpt lat="43.63816" lon="7.02623">
        <ele>170.39999389648</ele>
        <time>2011-05-27T11:05:47.000Z</time>
      </trkpt>
      <trkpt lat="43.63814" lon="7.02628">
        <ele>170</ele>
        <time>2011-05-27T11:05:55.000Z</time>
      </trkpt>
      <trkpt lat="43.63809" lon="7.0263">
        <ele>170.60000610352</ele>
        <time>2011-05-27T11:06:01.000Z</time>
      </trkpt>
      <trkpt lat="43.63803" lon="7.02624">
        <ele>173</ele>
        <time>2011-05-27T11:06:39.000Z</time>
      </trkpt>
      <trkpt lat="43.63803" lon="7.02627">
        <ele>172.60000610352</ele>
        <time>2011-05-27T11:06:49.000Z</time>
      </trkpt>
      <trkpt lat="43.63802" lon="7.02628">
        <ele>172.60000610352</ele>
        <time>2011-05-27T11:06:50.000Z</time>
      </trkpt>
      <trkpt lat="43.63794" lon="7.02635">
        <ele>173</ele>
        <time>2011-05-27T11:06:56.000Z</time>
      </trkpt>
      <trkpt lat="43.63776" lon="7.02644">
        <ele>174.80000305176</ele>
        <time>2011-05-27T11:07:04.000Z</time>
      </trkpt>
      <trkpt lat="43.63759" lon="7.02652">
        <ele>176.39999389648</ele>
        <time>2011-05-27T11:07:12.000Z</time>
      </trkpt>
      <trkpt lat="43.63744" lon="7.02657">
        <ele>177.80000305176</ele>
        <time>2011-05-27T11:07:19.000Z</time>
      </trkpt>
      <trkpt lat="43.63726" lon="7.02662">
        <ele>179.39999389648</ele>
        <time>2011-05-27T11:07:27.000Z</time>
      </trkpt>
      <trkpt lat="43.63709" lon="7.02671">
        <ele>180.39999389648</ele>
        <time>2011-05-27T11:07:35.000Z</time>
      </trkpt>
      <trkpt lat="43.63695" lon="7.02679">
        <ele>180.60000610352</ele>
        <time>2011-05-27T11:07:41.000Z</time>
      </trkpt>
      <trkpt lat="43.63681" lon="7.02691">
        <ele>180.19999694824</ele>
        <time>2011-05-27T11:07:49.000Z</time>
      </trkpt>
      <trkpt lat="43.63674" lon="7.02697">
        <ele>180</ele>
        <time>2011-05-27T11:07:55.000Z</time>
      </trkpt>
      <trkpt lat="43.63663" lon="7.02702">
        <ele>180.39999389648</ele>
        <time>2011-05-27T11:08:02.000Z</time>
      </trkpt>
      <trkpt lat="43.63653" lon="7.02702">
        <ele>182.39999389648</ele>
        <time>2011-05-27T11:08:09.000Z</time>
      </trkpt>
      <trkpt lat="43.63646" lon="7.02693">
        <ele>185.19999694824</ele>
        <time>2011-05-27T11:08:14.000Z</time>
      </trkpt>
      <trkpt lat="43.63638" lon="7.02674">
        <ele>190.19999694824</ele>
        <time>2011-05-27T11:08:22.000Z</time>
      </trkpt>
      <trkpt lat="43.63633" lon="7.02654">
        <ele>193</ele>
        <time>2011-05-27T11:08:30.000Z</time>
      </trkpt>
      <trkpt lat="43.63625" lon="7.02632">
        <ele>195.19999694824</ele>
        <time>2011-05-27T11:08:39.000Z</time>
      </trkpt>
      <trkpt lat="43.63623" lon="7.02625">
        <ele>195.80000305176</ele>
        <time>2011-05-27T11:08:41.000Z</time>
      </trkpt>
      <trkpt lat="43.63619" lon="7.02624">
        <ele>196.19999694824</ele>
        <time>2011-05-27T11:08:45.000Z</time>
      </trkpt>
      <trkpt lat="43.63618" lon="7.02641">
        <ele>195.60000610352</ele>
        <time>2011-05-27T11:08:49.000Z</time>
      </trkpt>
      <trkpt lat="43.63613" lon="7.02657">
        <ele>195.39999389648</ele>
        <time>2011-05-27T11:08:53.000Z</time>
      </trkpt>
      <trkpt lat="43.63607" lon="7.02667">
        <ele>195.80000305176</ele>
        <time>2011-05-27T11:08:58.000Z</time>
      </trkpt>
      <trkpt lat="43.63606" lon="7.02668">
        <ele>195.80000305176</ele>
        <time>2011-05-27T11:09:06.000Z</time>
      </trkpt>
      <trkpt lat="43.63602" lon="7.02678">
        <ele>194.80000305176</ele>
        <time>2011-05-27T11:09:10.000Z</time>
      </trkpt>
      <trkpt lat="43.63592" lon="7.02695">
        <ele>194.19999694824</ele>
        <time>2011-05-27T11:09:17.000Z</time>
      </trkpt>
      <trkpt lat="43.63584" lon="7.0271">
        <ele>193.60000610352</ele>
        <time>2011-05-27T11:09:23.000Z</time>
      </trkpt>
      <trkpt lat="43.63573" lon="7.0273">
        <ele>193</ele>
        <time>2011-05-27T11:09:31.000Z</time>
      </trkpt>
      <trkpt lat="43.6356" lon="7.02747">
        <ele>193.60000610352</ele>
        <time>2011-05-27T11:09:39.000Z</time>
      </trkpt>
      <trkpt lat="43.6355" lon="7.02755">
        <ele>195</ele>
        <time>2011-05-27T11:09:44.000Z</time>
      </trkpt>
      <trkpt lat="43.63533" lon="7.02765">
        <ele>197.60000610352</ele>
        <time>2011-05-27T11:09:51.000Z</time>
      </trkpt>
      <trkpt lat="43.63523" lon="7.02773">
        <ele>199.39999389648</ele>
        <time>2011-05-27T11:09:56.000Z</time>
      </trkpt>
      <trkpt lat="43.63503" lon="7.02787">
        <ele>203.19999694824</ele>
        <time>2011-05-27T11:10:04.000Z</time>
      </trkpt>
      <trkpt lat="43.63495" lon="7.02802">
        <ele>204.60000610352</ele>
        <time>2011-05-27T11:10:09.000Z</time>
      </trkpt>
      <trkpt lat="43.63498" lon="7.02822">
        <ele>203.60000610352</ele>
        <time>2011-05-27T11:10:15.000Z</time>
      </trkpt>
      <trkpt lat="43.63509" lon="7.02856">
        <ele>201.19999694824</ele>
        <time>2011-05-27T11:10:25.000Z</time>
      </trkpt>
      <trkpt lat="43.63518" lon="7.0288">
        <ele>199.19999694824</ele>
        <time>2011-05-27T11:10:32.000Z</time>
      </trkpt>
      <trkpt lat="43.63522" lon="7.02919">
        <ele>198.80000305176</ele>
        <time>2011-05-27T11:10:41.000Z</time>
      </trkpt>
      <trkpt lat="43.6352" lon="7.02952">
        <ele>199</ele>
        <time>2011-05-27T11:10:47.000Z</time>
      </trkpt>
      <trkpt lat="43.63517" lon="7.0299">
        <ele>199.39999389648</ele>
        <time>2011-05-27T11:10:53.000Z</time>
      </trkpt>
      <trkpt lat="43.63518" lon="7.03038">
        <ele>199.60000610352</ele>
        <time>2011-05-27T11:11:01.000Z</time>
      </trkpt>
      <trkpt lat="43.63519" lon="7.03071">
        <ele>199.80000305176</ele>
        <time>2011-05-27T11:11:06.000Z</time>
      </trkpt>
      <trkpt lat="43.63517" lon="7.03121">
        <ele>200.80000305176</ele>
        <time>2011-05-27T11:11:14.000Z</time>
      </trkpt>
      <trkpt lat="43.63513" lon="7.03163">
        <ele>202.39999389648</ele>
        <time>2011-05-27T11:11:21.000Z</time>
      </trkpt>
      <trkpt lat="43.6351" lon="7.03188">
        <ele>202.60000610352</ele>
        <time>2011-05-27T11:11:25.000Z</time>
      </trkpt>
      <trkpt lat="43.63506" lon="7.03206">
        <ele>203.39999389648</ele>
        <time>2011-05-27T11:11:28.000Z</time>
      </trkpt>
      <trkpt lat="43.63496" lon="7.03241">
        <ele>204.60000610352</ele>
        <time>2011-05-27T11:11:34.000Z</time>
      </trkpt>
      <trkpt lat="43.63468" lon="7.03283">
        <ele>203.80000305176</ele>
        <time>2011-05-27T11:11:43.000Z</time>
      </trkpt>
      <trkpt lat="43.63457" lon="7.03294">
        <ele>204.19999694824</ele>
        <time>2011-05-27T11:11:46.000Z</time>
      </trkpt>
      <trkpt lat="43.6343" lon="7.03313">
        <ele>205.60000610352</ele>
        <time>2011-05-27T11:11:52.000Z</time>
      </trkpt>
      <trkpt lat="43.63401" lon="7.03334">
        <ele>206.60000610352</ele>
        <time>2011-05-27T11:11:58.000Z</time>
      </trkpt>
      <trkpt lat="43.63372" lon="7.03354">
        <ele>205.80000305176</ele>
        <time>2011-05-27T11:12:04.000Z</time>
      </trkpt>
      <trkpt lat="43.63342" lon="7.03365">
        <ele>206</ele>
        <time>2011-05-27T11:12:10.000Z</time>
      </trkpt>
      <trkpt lat="43.63306" lon="7.03376">
        <ele>205</ele>
        <time>2011-05-27T11:12:17.000Z</time>
      </trkpt>
      <trkpt lat="43.63276" lon="7.03386">
        <ele>203.39999389648</ele>
        <time>2011-05-27T11:12:23.000Z</time>
      </trkpt>
      <trkpt lat="43.63248" lon="7.03396">
        <ele>201.60000610352</ele>
        <time>2011-05-27T11:12:30.000Z</time>
      </trkpt>
      <trkpt lat="43.63241" lon="7.03398">
        <ele>200</ele>
        <time>2011-05-27T11:12:32.000Z</time>
      </trkpt>
      <trkpt lat="43.63219" lon="7.03395">
        <ele>195.80000305176</ele>
        <time>2011-05-27T11:12:38.000Z</time>
      </trkpt>
      <trkpt lat="43.63217" lon="7.03393">
        <ele>195.60000610352</ele>
        <time>2011-05-27T11:12:39.000Z</time>
      </trkpt>
      <trkpt lat="43.63217" lon="7.03392">
        <ele>195.60000610352</ele>
        <time>2011-05-27T11:12:45.000Z</time>
      </trkpt>
      <trkpt lat="43.63218" lon="7.03393">
        <ele>195.80000305176</ele>
        <time>2011-05-27T11:13:10.000Z</time>
      </trkpt>
      <trkpt lat="43.63217" lon="7.03395">
        <ele>195.39999389648</ele>
        <time>2011-05-27T11:13:18.000Z</time>
      </trkpt>
      <trkpt lat="43.63219" lon="7.03394">
        <ele>195.80000305176</ele>
        <time>2011-05-27T11:13:41.000Z</time>
      </trkpt>
      <trkpt lat="43.63216" lon="7.03391">
        <ele>195.60000610352</ele>
        <time>2011-05-27T11:13:55.000Z</time>
      </trkpt>
      <trkpt lat="43.63205" lon="7.03379">
        <ele>194.39999389648</ele>
        <time>2011-05-27T11:14:00.000Z</time>
      </trkpt>
      <trkpt lat="43.63193" lon="7.03358">
        <ele>194</ele>
        <time>2011-05-27T11:14:06.000Z</time>
      </trkpt>
      <trkpt lat="43.63192" lon="7.03358">
        <ele>194</ele>
        <time>2011-05-27T11:14:10.000Z</time>
      </trkpt>
      <trkpt lat="43.63192" lon="7.03358">
        <ele>193.80000305176</ele>
        <time>2011-05-27T11:14:23.000Z</time>
      </trkpt>
      <trkpt lat="43.63186" lon="7.03352">
        <ele>193.19999694824</ele>
        <time>2011-05-27T11:14:27.000Z</time>
      </trkpt>
      <trkpt lat="43.63178" lon="7.03341">
        <ele>192.60000610352</ele>
        <time>2011-05-27T11:14:31.000Z</time>
      </trkpt>
      <trkpt lat="43.63169" lon="7.03326">
        <ele>192</ele>
        <time>2011-05-27T11:14:35.000Z</time>
      </trkpt>
      <trkpt lat="43.63168" lon="7.03327">
        <ele>191.60000610352</ele>
        <time>2011-05-27T11:14:41.000Z</time>
      </trkpt>
      <trkpt lat="43.63168" lon="7.03328">
        <ele>191.60000610352</ele>
        <time>2011-05-27T11:14:52.000Z</time>
      </trkpt>
      <trkpt lat="43.63171" lon="7.03327">
        <ele>192.19999694824</ele>
        <time>2011-05-27T11:15:06.000Z</time>
      </trkpt>
      <trkpt lat="43.63173" lon="7.03331">
        <ele>192.39999389648</ele>
        <time>2011-05-27T11:15:11.000Z</time>
      </trkpt>
      <trkpt lat="43.63176" lon="7.03338">
        <ele>192.39999389648</ele>
        <time>2011-05-27T11:15:16.000Z</time>
      </trkpt>
      <trkpt lat="43.63179" lon="7.03344">
        <ele>192.60000610352</ele>
        <time>2011-05-27T11:15:23.000Z</time>
      </trkpt>
      <trkpt lat="43.6318" lon="7.03345">
        <ele>192.60000610352</ele>
        <time>2011-05-27T11:15:28.000Z</time>
      </trkpt>
      <trkpt lat="43.6318" lon="7.03345">
        <ele>192.60000610352</ele>
        <time>2011-05-27T11:15:35.000Z</time>
      </trkpt>
      <trkpt lat="43.6318" lon="7.03346">
        <ele>192.60000610352</ele>
        <time>2011-05-27T11:15:45.000Z</time>
      </trkpt>
      <trkpt lat="43.6318" lon="7.03347">
        <ele>192.39999389648</ele>
        <time>2011-05-27T11:16:07.000Z</time>
      </trkpt>
      <trkpt lat="43.6318" lon="7.03348">
        <ele>192.39999389648</ele>
        <time>2011-05-27T11:16:15.000Z</time>
      </trkpt>
      <trkpt lat="43.63186" lon="7.03355">
        <ele>193</ele>
        <time>2011-05-27T11:16:22.000Z</time>
      </trkpt>
      <trkpt lat="43.63191" lon="7.03357">
        <ele>193.80000305176</ele>
        <time>2011-05-27T11:16:29.000Z</time>
      </trkpt>
      <trkpt lat="43.63194" lon="7.03357">
        <ele>194.60000610352</ele>
        <time>2011-05-27T11:16:36.000Z</time>
      </trkpt>
      <trkpt lat="43.63197" lon="7.03357">
        <ele>195</ele>
        <time>2011-05-27T11:16:38.000Z</time>
      </trkpt>
      <trkpt lat="43.63197" lon="7.03357">
        <ele>195</ele>
        <time>2011-05-27T11:16:41.000Z</time>
      </trkpt>
      <trkpt lat="43.63196" lon="7.03357">
        <ele>195</ele>
        <time>2011-05-27T11:18:59.000Z</time>
      </trkpt>
      <trkpt lat="43.63196" lon="7.03357">
        <ele>194.80000305176</ele>
        <time>2011-05-27T11:19:00.000Z</time>
      </trkpt>
      <trkpt lat="43.63194" lon="7.03356">
        <ele>194.60000610352</ele>
        <time>2011-05-27T11:19:01.000Z</time>
      </trkpt>
      <trkpt lat="43.63184" lon="7.03343">
        <ele>193.80000305176</ele>
        <time>2011-05-27T11:19:07.000Z</time>
      </trkpt>
      <trkpt lat="43.63176" lon="7.03309">
        <ele>194.60000610352</ele>
        <time>2011-05-27T11:19:13.000Z</time>
      </trkpt>
      <trkpt lat="43.63168" lon="7.03275">
        <ele>195.39999389648</ele>
        <time>2011-05-27T11:19:19.000Z</time>
      </trkpt>
      <trkpt lat="43.63163" lon="7.03255">
        <ele>195.19999694824</ele>
        <time>2011-05-27T11:19:24.000Z</time>
      </trkpt>
      <trkpt lat="43.63161" lon="7.03246">
        <ele>195.19999694824</ele>
        <time>2011-05-27T11:19:34.000Z</time>
      </trkpt>
      <trkpt lat="43.63152" lon="7.03217">
        <ele>195.19999694824</ele>
        <time>2011-05-27T11:19:41.000Z</time>
      </trkpt>
      <trkpt lat="43.63137" lon="7.03181">
        <ele>194.19999694824</ele>
        <time>2011-05-27T11:19:49.000Z</time>
      </trkpt>
      <trkpt lat="43.63124" lon="7.03143">
        <ele>193.60000610352</ele>
        <time>2011-05-27T11:19:57.000Z</time>
      </trkpt>
      <trkpt lat="43.63123" lon="7.03112">
        <ele>195.39999389648</ele>
        <time>2011-05-27T11:20:03.000Z</time>
      </trkpt>
      <trkpt lat="43.63121" lon="7.03081">
        <ele>197.19999694824</ele>
        <time>2011-05-27T11:20:09.000Z</time>
      </trkpt>
      <trkpt lat="43.63113" lon="7.03043">
        <ele>195.80000305176</ele>
        <time>2011-05-27T11:20:17.000Z</time>
      </trkpt>
      <trkpt lat="43.63106" lon="7.03015">
        <ele>194.60000610352</ele>
        <time>2011-05-27T11:20:22.000Z</time>
      </trkpt>
      <trkpt lat="43.63105" lon="7.03008">
        <ele>194.39999389648</ele>
        <time>2011-05-27T11:20:23.000Z</time>
      </trkpt>
      <trkpt lat="43.63103" lon="7.02974">
        <ele>194.60000610352</ele>
        <time>2011-05-27T11:20:28.000Z</time>
      </trkpt>
      <trkpt lat="43.63098" lon="7.02958">
        <ele>193.19999694824</ele>
        <time>2011-05-27T11:20:30.000Z</time>
      </trkpt>
      <trkpt lat="43.63089" lon="7.02935">
        <ele>190.60000610352</ele>
        <time>2011-05-27T11:20:33.000Z</time>
      </trkpt>
      <trkpt lat="43.63082" lon="7.02892">
        <ele>187.80000305176</ele>
        <time>2011-05-27T11:20:38.000Z</time>
      </trkpt>
      <trkpt lat="43.63086" lon="7.02833">
        <ele>187.80000305176</ele>
        <time>2011-05-27T11:20:45.000Z</time>
      </trkpt>
      <trkpt lat="43.63087" lon="7.02825">
        <ele>187.19999694824</ele>
        <time>2011-05-27T11:20:46.000Z</time>
      </trkpt>
      <trkpt lat="43.63105" lon="7.0277">
        <ele>186.60000610352</ele>
        <time>2011-05-27T11:20:53.000Z</time>
      </trkpt>
      <trkpt lat="43.6312" lon="7.02726">
        <ele>186</ele>
        <time>2011-05-27T11:20:58.000Z</time>
      </trkpt>
      <trkpt lat="43.63133" lon="7.02684">
        <ele>184.19999694824</ele>
        <time>2011-05-27T11:21:03.000Z</time>
      </trkpt>
      <trkpt lat="43.63148" lon="7.0264">
        <ele>182</ele>
        <time>2011-05-27T11:21:09.000Z</time>
      </trkpt>
      <trkpt lat="43.63147" lon="7.02623">
        <ele>180.19999694824</ele>
        <time>2011-05-27T11:21:12.000Z</time>
      </trkpt>
      <trkpt lat="43.63146" lon="7.026">
        <ele>178</ele>
        <time>2011-05-27T11:21:15.000Z</time>
      </trkpt>
      <trkpt lat="43.63143" lon="7.02576">
        <ele>176.80000305176</ele>
        <time>2011-05-27T11:21:20.000Z</time>
      </trkpt>
      <trkpt lat="43.63138" lon="7.02554">
        <ele>178.60000610352</ele>
        <time>2011-05-27T11:21:25.000Z</time>
      </trkpt>
      <trkpt lat="43.63137" lon="7.02544">
        <ele>179.60000610352</ele>
        <time>2011-05-27T11:21:29.000Z</time>
      </trkpt>
      <trkpt lat="43.63127" lon="7.02545">
        <ele>179.80000305176</ele>
        <time>2011-05-27T11:21:32.000Z</time>
      </trkpt>
      <trkpt lat="43.63096" lon="7.02542">
        <ele>181</ele>
        <time>2011-05-27T11:21:37.000Z</time>
      </trkpt>
      <trkpt lat="43.63089" lon="7.02542">
        <ele>181.19999694824</ele>
        <time>2011-05-27T11:21:38.000Z</time>
      </trkpt>
      <trkpt lat="43.63072" lon="7.0256">
        <ele>180.80000305176</ele>
        <time>2011-05-27T11:21:42.000Z</time>
      </trkpt>
      <trkpt lat="43.6306" lon="7.02582">
        <ele>179.39999389648</ele>
        <time>2011-05-27T11:21:46.000Z</time>
      </trkpt>
      <trkpt lat="43.63048" lon="7.02592">
        <ele>180.60000610352</ele>
        <time>2011-05-27T11:21:50.000Z</time>
      </trkpt>
      <trkpt lat="43.63046" lon="7.02592">
        <ele>181</ele>
        <time>2011-05-27T11:21:51.000Z</time>
      </trkpt>
      <trkpt lat="43.63042" lon="7.0259">
        <ele>181.80000305176</ele>
        <time>2011-05-27T11:21:53.000Z</time>
      </trkpt>
      <trkpt lat="43.6304" lon="7.02592">
        <ele>181.80000305176</ele>
        <time>2011-05-27T11:22:00.000Z</time>
      </trkpt>
      <trkpt lat="43.6304" lon="7.02593">
        <ele>181.80000305176</ele>
        <time>2011-05-27T11:22:05.000Z</time>
      </trkpt>
      <trkpt lat="43.63036" lon="7.0261">
        <ele>180.80000305176</ele>
        <time>2011-05-27T11:22:11.000Z</time>
      </trkpt>
      <trkpt lat="43.63027" lon="7.02636">
        <ele>179</ele>
        <time>2011-05-27T11:22:15.000Z</time>
      </trkpt>
      <trkpt lat="43.6302" lon="7.02649">
        <ele>178.19999694824</ele>
        <time>2011-05-27T11:22:17.000Z</time>
      </trkpt>
      <trkpt lat="43.63012" lon="7.02659">
        <ele>177.39999389648</ele>
        <time>2011-05-27T11:22:19.000Z</time>
      </trkpt>
      <trkpt lat="43.62995" lon="7.02684">
        <ele>175</ele>
        <time>2011-05-27T11:22:24.000Z</time>
      </trkpt>
      <trkpt lat="43.6298" lon="7.02718">
        <ele>171.60000610352</ele>
        <time>2011-05-27T11:22:29.000Z</time>
      </trkpt>
      <trkpt lat="43.62967" lon="7.02733">
        <ele>170.19999694824</ele>
        <time>2011-05-27T11:22:32.000Z</time>
      </trkpt>
      <trkpt lat="43.62944" lon="7.02759">
        <ele>168.80000305176</ele>
        <time>2011-05-27T11:22:37.000Z</time>
      </trkpt>
      <trkpt lat="43.62932" lon="7.0278">
        <ele>168.39999389648</ele>
        <time>2011-05-27T11:22:41.000Z</time>
      </trkpt>
      <trkpt lat="43.62929" lon="7.02786">
        <ele>168.39999389648</ele>
        <time>2011-05-27T11:22:43.000Z</time>
      </trkpt>
      <trkpt lat="43.62922" lon="7.02787">
        <ele>168.39999389648</ele>
        <time>2011-05-27T11:22:48.000Z</time>
      </trkpt>
      <trkpt lat="43.62918" lon="7.02789">
        <ele>168.39999389648</ele>
        <time>2011-05-27T11:22:51.000Z</time>
      </trkpt>
      <trkpt lat="43.62917" lon="7.02791">
        <ele>168.39999389648</ele>
        <time>2011-05-27T11:22:53.000Z</time>
      </trkpt>
      <trkpt lat="43.62926" lon="7.0279">
        <ele>168.39999389648</ele>
        <time>2011-05-27T11:22:58.000Z</time>
      </trkpt>
      <trkpt lat="43.6293" lon="7.02787">
        <ele>168.39999389648</ele>
        <time>2011-05-27T11:23:03.000Z</time>
      </trkpt>
      <trkpt lat="43.62921" lon="7.02788">
        <ele>168.39999389648</ele>
        <time>2011-05-27T11:23:06.000Z</time>
      </trkpt>
      <trkpt lat="43.6291" lon="7.02798">
        <ele>169.39999389648</ele>
        <time>2011-05-27T11:23:10.000Z</time>
      </trkpt>
      <trkpt lat="43.62906" lon="7.02805">
        <ele>170</ele>
        <time>2011-05-27T11:23:14.000Z</time>
      </trkpt>
      <trkpt lat="43.62904" lon="7.02813">
        <ele>170.39999389648</ele>
        <time>2011-05-27T11:23:18.000Z</time>
      </trkpt>
      <trkpt lat="43.62904" lon="7.0282">
        <ele>170.39999389648</ele>
        <time>2011-05-27T11:23:23.000Z</time>
      </trkpt>
      <trkpt lat="43.62905" lon="7.02822">
        <ele>170.39999389648</ele>
        <time>2011-05-27T11:23:25.000Z</time>
      </trkpt>
      <trkpt lat="43.62903" lon="7.02821">
        <ele>170.60000610352</ele>
        <time>2011-05-27T11:23:31.000Z</time>
      </trkpt>
      <trkpt lat="43.62904" lon="7.02828">
        <ele>170.60000610352</ele>
        <time>2011-05-27T11:23:35.000Z</time>
      </trkpt>
      <trkpt lat="43.62905" lon="7.02837">
        <ele>170.60000610352</ele>
        <time>2011-05-27T11:23:40.000Z</time>
      </trkpt>
      <trkpt lat="43.62908" lon="7.02859">
        <ele>171.19999694824</ele>
        <time>2011-05-27T11:23:48.000Z</time>
      </trkpt>
      <trkpt lat="43.6291" lon="7.02882">
        <ele>171.60000610352</ele>
        <time>2011-05-27T11:23:55.000Z</time>
      </trkpt>
      <trkpt lat="43.62912" lon="7.02908">
        <ele>172.19999694824</ele>
        <time>2011-05-27T11:24:02.000Z</time>
      </trkpt>
      <trkpt lat="43.62911" lon="7.02936">
        <ele>173</ele>
        <time>2011-05-27T11:24:10.000Z</time>
      </trkpt>
      <trkpt lat="43.62909" lon="7.02956">
        <ele>174.19999694824</ele>
        <time>2011-05-27T11:24:16.000Z</time>
      </trkpt>
      <trkpt lat="43.62905" lon="7.02983">
        <ele>176.19999694824</ele>
        <time>2011-05-27T11:24:24.000Z</time>
      </trkpt>
      <trkpt lat="43.62896" lon="7.03017">
        <ele>180.80000305176</ele>
        <time>2011-05-27T11:24:34.000Z</time>
      </trkpt>
      <trkpt lat="43.62892" lon="7.03049">
        <ele>183</ele>
        <time>2011-05-27T11:24:42.000Z</time>
      </trkpt>
      <trkpt lat="43.62895" lon="7.03078">
        <ele>182.39999389648</ele>
        <time>2011-05-27T11:24:49.000Z</time>
      </trkpt>
      <trkpt lat="43.62901" lon="7.03111">
        <ele>181.19999694824</ele>
        <time>2011-05-27T11:24:57.000Z</time>
      </trkpt>
      <trkpt lat="43.62898" lon="7.03144">
        <ele>183.19999694824</ele>
        <time>2011-05-27T11:25:05.000Z</time>
      </trkpt>
      <trkpt lat="43.62885" lon="7.0318">
        <ele>188.80000305176</ele>
        <time>2011-05-27T11:25:15.000Z</time>
      </trkpt>
      <trkpt lat="43.62876" lon="7.03205">
        <ele>192.80000305176</ele>
        <time>2011-05-27T11:25:22.000Z</time>
      </trkpt>
      <trkpt lat="43.62876" lon="7.0323">
        <ele>193.60000610352</ele>
        <time>2011-05-27T11:25:28.000Z</time>
      </trkpt>
      <trkpt lat="43.62886" lon="7.03253">
        <ele>192</ele>
        <time>2011-05-27T11:25:34.000Z</time>
      </trkpt>
      <trkpt lat="43.62903" lon="7.03282">
        <ele>190.39999389648</ele>
        <time>2011-05-27T11:25:41.000Z</time>
      </trkpt>
      <trkpt lat="43.62915" lon="7.03314">
        <ele>191.19999694824</ele>
        <time>2011-05-27T11:25:47.000Z</time>
      </trkpt>
      <trkpt lat="43.62916" lon="7.03349">
        <ele>193.80000305176</ele>
        <time>2011-05-27T11:25:53.000Z</time>
      </trkpt>
      <trkpt lat="43.62911" lon="7.03401">
        <ele>196.80000305176</ele>
        <time>2011-05-27T11:26:02.000Z</time>
      </trkpt>
      <trkpt lat="43.629" lon="7.0343">
        <ele>198.80000305176</ele>
        <time>2011-05-27T11:26:08.000Z</time>
      </trkpt>
      <trkpt lat="43.62882" lon="7.0346">
        <ele>200.39999389648</ele>
        <time>2011-05-27T11:26:15.000Z</time>
      </trkpt>
      <trkpt lat="43.62865" lon="7.03487">
        <ele>201.80000305176</ele>
        <time>2011-05-27T11:26:22.000Z</time>
      </trkpt>
      <trkpt lat="43.62841" lon="7.03534">
        <ele>202.60000610352</ele>
        <time>2011-05-27T11:26:32.000Z</time>
      </trkpt>
      <trkpt lat="43.62837" lon="7.03544">
        <ele>202.60000610352</ele>
        <time>2011-05-27T11:26:34.000Z</time>
      </trkpt>
      <trkpt lat="43.6283" lon="7.03581">
        <ele>202</ele>
        <time>2011-05-27T11:26:42.000Z</time>
      </trkpt>
      <trkpt lat="43.62834" lon="7.03591">
        <ele>201.60000610352</ele>
        <time>2011-05-27T11:26:46.000Z</time>
      </trkpt>
      <trkpt lat="43.62837" lon="7.03599">
        <ele>201.39999389648</ele>
        <time>2011-05-27T11:26:52.000Z</time>
      </trkpt>
      <trkpt lat="43.62844" lon="7.03613">
        <ele>201</ele>
        <time>2011-05-27T11:26:57.000Z</time>
      </trkpt>
      <trkpt lat="43.62846" lon="7.03615">
        <ele>201</ele>
        <time>2011-05-27T11:26:59.000Z</time>
      </trkpt>
      <trkpt lat="43.62847" lon="7.03616">
        <ele>201</ele>
        <time>2011-05-27T11:27:04.000Z</time>
      </trkpt>
    </trkseg>
  </trk>
</gpx>